Ramey, PA (16671)

6:43 AM EDT on April 19, 2015 (GMT -0400)
The Garden | | Change Station
CLOSE
Current Station
Personal Weather Station
Location: Houtzdale, PA
Elevation: 1578 ft
Nearby Weather Stations

Elev 1578 ft 40.79 °N, 78.37 °W | Updated 7 seconds ago

Partly Cloudy
Partly Cloudy
38.5 °F
Feels Like 38 °F
N
0.0
Wind Variable Wind from NNW
Gusts 0.0 mph

Today
High -- | Low -- °F
--% Chance of Precip.
Yesterday
High -- | Low -- °F
Precip. -- in
6:29 AM 7:57 PM
New Moon, 1% visible
Pressure 30.14 in
Visibility 10.0 miles
Clouds Clear
Windchill 38 °F
Dew Point 33 °F
Humidity 82%
Rainfall 0.00 in
Snow Depth Not available.
UV 0.0 out of 12
Pollen 11.40 out of 12
Air Quality Not available.
Flu Activity Sporadic
METAR KFIG 190954Z AUTO 05006KT 10SM CLR 07/M03 A3015 RMK AO2 SLP207 T00671028

More Conditions Fewer Conditions

Pressure 30.14 in
Visibility 10.0 miles
Clouds Clear
Windchill 38 °F
Dew Point 33 °F
Humidity 82%
Rainfall 0.00 in
Snow Depth Not available.
UV 0.0 out of 12
Pollen 11.40 out of 12
Air Quality Not available.
Flu Activity Sporadic
METAR KFIG 190954Z AUTO 05006KT 10SM CLR 07/M03 A3015 RMK AO2 SLP207 T00671028

More Conditions Fewer Conditions

10-Day Weather Forecast

Almanac

Astronomy

Apr. 19, 2015 Rise Set
Actual Time
Civil Twilight
Nautical Twilight
Astronomical Twilight
Moon
Length of Visible Light
Length of Day
Tomorrow will be .
, % of the Moon is Illuminated

Today's Extremes

State Highs State Lows

Community

WunderPhotos

Upload Photos

1,814,759 photos uploaded!

WunderBlogs® & News

Nearby

Air Quality

  Air Quality AQ Index Pollutant
Not available.

Snow Depth

Station Depth Elevation

Earthquake Activity

City Distance Mag. Time & Date
Minimum magnitude displayed is 2.5.

Coastal Water Temperatures

Place Temperature

Stations

Nearby Weather Stations

Station Location Temp. Windchill Dew Point Humidity Wind Precip. Elev Updated Type